Terminal Aerodrome Forecast
Issued by NWS Sterling, VA

Current Version | Previous Version | Graphics & Text | Print | Product List | Glossary On
Versions: 1 2 3 4 5 6 7 8 9 10 11 12 13 14 15 16 17 18 19 20 21 22 23 24
623
FTUS41 KLWX 052333
TAFDCA
TAF
KDCA 052333Z 0600/0624 03006KT P6SM SCT015 OVC035
     FM060200 01004KT P6SM OVC015
     FM060400 36004KT P6SM -SHRA OVC008
     FM060900 36008KT P6SM -SHRA OVC010
     FM061400 01008KT 3SM SHRA OVC010
     FM062200 36007KT 2SM BR OVC010=

USA.gov is the U.S. government's official web portal to all federal, state and local government web resources and services.